Flugplatz Rostock-Laage Airport

Bericht für ETNL

vom 10.04. um 11:20 UTC

Wind 4 kt aus 290°

Sichtweite 10 km oder mehr

gering bewölkt in 4000 ft

aufgebrochene Bewölkung in 28000 ft

Temperatur 7.0°C

Taupunkt -5.0°C

Luftfeuchtigkeit 42%

Luftdruck 1016 hPa

ETNL 101120Z 29004KT 9999 FEW040 BKN280 07/M05 Q1016 BLU+

Prognose für ETNL

vom 10.04. um 10:25 UTC

Zwischen 11:00 UTC und 15:00 UTC

Wind 5 kt aus 320°

Sichtweite 10 km oder mehr

keine signifikanten Wettererscheinungen

aufgelockert bewölkt in 4000 ft

aufgebrochene Bewölkung in 23000 ft


Zwischen 15:00 und 17:00 UTC übergehend zu

Wind 5 kt aus 60°

Sichtweite 10 km oder mehr

keine signifikanten Wettererscheinungen

aufgebrochene Bewölkung in 4000 ft

aufgebrochene Bewölkung in 12000 ft


Zwischen 21:00 UTC und 23:00 UTC zeitweise

Wind 10 kt aus 70°

Sichtweite 4000 m

Regen

aufgebrochene Bewölkung in 1200 ft

TAF ETNL 101025Z 1011/1023 32005KT 9999 NSW SCT040 BKN230 BECMG 1015/1017 06005KT 9999 NSW BKN040 BKN120 TEMPO 1021/1023 07010KT 4000 RA BKN012 BY ETGL
Impressum